sensor_id;sensor_type;location;lat;lon;timestamp;temperature;humidity
17807;DHT22;9027;48.938;9.182;2023-02-28T00:00:19;0.30;99.90
17807;DHT22;9027;48.938;9.182;2023-02-28T00:01:51;0.40;99.90
17807;DHT22;9027;48.938;9.182;2023-02-28T00:03:23;0.50;99.90
17807;DHT22;9027;48.938;9.182;2023-02-28T00:04:56;0.50;99.90
17807;DHT22;9027;48.938;9.182;2023-02-28T00:06:33;0.50;99.90
17807;DHT22;9027;48.938;9.182;2023-02-28T00:08:05;0.50;99.90
17807;DHT22;9027;48.938;9.182;2023-02-28T00:09:37;0.50;99.90
17807;DHT22;9027;48.938;9.182;2023-02-28T00:11:11;0.40;99.90
17807;DHT22;9027;48.938;9.182;2023-02-28T00:12:43;0.40;99.90
17807;DHT22;9027;48.938;9.182;2023-02-28T00:14:15;0.30;99.90
17807;DHT22;9027;48.938;9.182;2023-02-28T00:15:47;0.30;99.90
17807;DHT22;9027;48.938;9.182;2023-02-28T00:17:18;0.40;99.90
17807;DHT22;9027;48.938;9.182;2023-02-28T00:18:51;0.30;99.90
17807;DHT22;9027;48.938;9.182;2023-02-28T00:20:24;0.30;99.90
17807;DHT22;9027;48.938;9.182;2023-02-28T00:21:55;0.30;99.90
17807;DHT22;9027;48.938;9.182;2023-02-28T00:23:29;0.20;99.90
17807;DHT22;9027;48.938;9.182;2023-02-28T00:25:01;0.20;99.90
17807;DHT22;9027;48.938;9.182;2023-02-28T00:26:31;0.20;99.90
17807;DHT22;9027;48.938;9.182;2023-02-28T00:28:04;0.20;99.90
17807;DHT22;9027;48.938;9.182;2023-02-28T00:29:37;0.20;99.90
17807;DHT22;9027;48.938;9.182;2023-02-28T00:31:09;0.20;99.90
17807;DHT22;9027;48.938;9.182;2023-02-28T00:32:41;0.20;99.90
17807;DHT22;9027;48.938;9.182;2023-02-28T00:34:13;0.20;99.90
17807;DHT22;9027;48.938;9.182;2023-02-28T00:35:46;0.20;99.90
17807;DHT22;9027;48.938;9.182;2023-02-28T00:37:19;0.20;99.90
17807;DHT22;9027;48.938;9.182;2023-02-28T00:38:51;0.30;99.90
17807;DHT22;9027;48.938;9.182;2023-02-28T00:40:23;0.30;99.90
17807;DHT22;9027;48.938;9.182;2023-02-28T00:41:55;0.30;99.90
17807;DHT22;9027;48.938;9.182;2023-02-28T00:43:27;0.30;99.90
17807;DHT22;9027;48.938;9.182;2023-02-28T00:44:59;0.20;99.90
17807;DHT22;9027;48.938;9.182;2023-02-28T00:46:31;0.10;99.90
17807;DHT22;9027;48.938;9.182;2023-02-28T00:48:03;0.10;99.90
17807;DHT22;9027;48.938;9.182;2023-02-28T00:49:35;0.10;99.90
17807;DHT22;9027;48.938;9.182;2023-02-28T00:51:09;0.10;99.90
17807;DHT22;9027;48.938;9.182;2023-02-28T00:52:40;0.10;99.90
17807;DHT22;9027;48.938;9.182;2023-02-28T00:54:12;0.10;99.90
17807;DHT22;9027;48.938;9.182;2023-02-28T00:55:44;0.20;99.90
17807;DHT22;9027;48.938;9.182;2023-02-28T00:57:16;0.20;99.90
17807;DHT22;9027;48.938;9.182;2023-02-28T00:58:48;0.10;99.90
17807;DHT22;9027;48.938;9.182;2023-02-28T01:00:20;0.10;99.90
17807;DHT22;9027;48.938;9.182;2023-02-28T01:01:54;0.00;99.90
17807;DHT22;9027;48.938;9.182;2023-02-28T01:03:26;0.00;99.90
17807;DHT22;9027;48.938;9.182;2023-02-28T01:04:57;-0.10;99.90
17807;DHT22;9027;48.938;9.182;2023-02-28T01:06:30;0.00;99.90
17807;DHT22;9027;48.938;9.182;2023-02-28T01:08:03;-0.10;99.90
17807;DHT22;9027;48.938;9.182;2023-02-28T01:09:35;-0.10;99.90
17807;DHT22;9027;48.938;9.182;2023-02-28T01:11:08;-0.10;99.90
17807;DHT22;9027;48.938;9.182;2023-02-28T01:12:40;-0.20;99.90
17807;DHT22;9027;48.938;9.182;2023-02-28T01:14:13;-0.20;99.90
17807;DHT22;9027;48.938;9.182;2023-02-28T01:15:48;-0.20;99.90
17807;DHT22;9027;48.938;9.182;2023-02-28T01:17:20;-0.20;99.90
17807;DHT22;9027;48.938;9.182;2023-02-28T01:18:52;-0.10;99.90
17807;DHT22;9027;48.938;9.182;2023-02-28T01:20:24;-0.10;99.90
17807;DHT22;9027;48.938;9.182;2023-02-28T01:21:56;0.00;99.90
17807;DHT22;9027;48.938;9.182;2023-02-28T01:23:28;0.00;99.90
17807;DHT22;9027;48.938;9.182;2023-02-28T01:25:00;0.00;99.90
17807;DHT22;9027;48.938;9.182;2023-02-28T01:26:32;-0.10;99.90
17807;DHT22;9027;48.938;9.182;2023-02-28T01:28:05;-0.10;99.90
17807;DHT22;9027;48.938;9.182;2023-02-28T01:29:36;-0.10;99.90
17807;DHT22;9027;48.938;9.182;2023-02-28T01:31:08;-0.20;99.90
17807;DHT22;9027;48.938;9.182;2023-02-28T01:32:42;-0.20;99.90
17807;DHT22;9027;48.938;9.182;2023-02-28T01:34:14;-0.10;99.90
17807;DHT22;9027;48.938;9.182;2023-02-28T01:35:45;-0.10;99.90
17807;DHT22;9027;48.938;9.182;2023-02-28T01:37:19;-0.10;99.90
17807;DHT22;9027;48.938;9.182;2023-02-28T01:38:51;-0.10;99.90
17807;DHT22;9027;48.938;9.182;2023-02-28T01:40:25;-0.10;99.90
17807;DHT22;9027;48.938;9.182;2023-02-28T01:41:56;-0.10;99.90
17807;DHT22;9027;48.938;9.182;2023-02-28T01:43:30;-0.10;99.90
17807;DHT22;9027;48.938;9.182;2023-02-28T01:45:06;-0.10;99.90
17807;DHT22;9027;48.938;9.182;2023-02-28T01:46:38;-0.10;99.90
17807;DHT22;9027;48.938;9.182;2023-02-28T01:48:10;-0.10;99.90
17807;DHT22;9027;48.938;9.182;2023-02-28T01:49:43;0.00;99.90
17807;DHT22;9027;48.938;9.182;2023-02-28T01:51:19;-0.10;99.90
17807;DHT22;9027;48.938;9.182;2023-02-28T01:52:56;-0.10;99.90
17807;DHT22;9027;48.938;9.182;2023-02-28T01:54:31;0.00;99.90
17807;DHT22;9027;48.938;9.182;2023-02-28T01:56:06;0.00;99.90
17807;DHT22;9027;48.938;9.182;2023-02-28T01:57:42;0.00;99.90
17807;DHT22;9027;48.938;9.182;2023-02-28T01:59:21;0.10;99.90
17807;DHT22;9027;48.938;9.182;2023-02-28T02:00:53;0.10;99.90
17807;DHT22;9027;48.938;9.182;2023-02-28T02:02:26;0.10;99.90
17807;DHT22;9027;48.938;9.182;2023-02-28T02:04:01;0.00;99.90
17807;DHT22;9027;48.938;9.182;2023-02-28T02:05:33;0.00;99.90
17807;DHT22;9027;48.938;9.182;2023-02-28T02:07:08;0.00;99.90
17807;DHT22;9027;48.938;9.182;2023-02-28T02:08:42;-0.10;99.90
17807;DHT22;9027;48.938;9.182;2023-02-28T02:10:14;-0.10;99.90
17807;DHT22;9027;48.938;9.182;2023-02-28T02:11:48;-0.10;99.90
17807;DHT22;9027;48.938;9.182;2023-02-28T02:15:30;0.00;99.90
17807;DHT22;9027;48.938;9.182;2023-02-28T02:17:20;0.00;99.90
17807;DHT22;9027;48.938;9.182;2023-02-28T02:19:01;0.00;99.90
17807;DHT22;9027;48.938;9.182;2023-02-28T02:21:01;0.00;99.90
17807;DHT22;9027;48.938;9.182;2023-02-28T02:25:16;-0.10;99.90
17807;DHT22;9027;48.938;9.182;2023-02-28T02:26:58;-0.10;99.90
17807;DHT22;9027;48.938;9.182;2023-02-28T02:28:46;-0.10;99.90
17807;DHT22;9027;48.938;9.182;2023-02-28T02:30:48;-0.20;99.90
17807;DHT22;9027;48.938;9.182;2023-02-28T02:34:43;-0.20;99.90
17807;DHT22;9027;48.938;9.182;2023-02-28T02:36:22;-0.30;99.90
17807;DHT22;9027;48.938;9.182;2023-02-28T02:37:59;-0.30;99.90
17807;DHT22;9027;48.938;9.182;2023-02-28T02:39:38;-0.30;99.90
17807;DHT22;9027;48.938;9.182;2023-02-28T02:41:24;-0.30;99.90
17807;DHT22;9027;48.938;9.182;2023-02-28T02:43:02;-0.30;99.90
17807;DHT22;9027;48.938;9.182;2023-02-28T02:44:40;-0.30;99.90
17807;DHT22;9027;48.938;9.182;2023-02-28T02:46:20;-0.30;99.90
17807;DHT22;9027;48.938;9.182;2023-02-28T02:47:53;-0.30;99.90
17807;DHT22;9027;48.938;9.182;2023-02-28T02:49:30;-0.30;99.90
17807;DHT22;9027;48.938;9.182;2023-02-28T02:51:07;-0.30;99.90
17807;DHT22;9027;48.938;9.182;2023-02-28T02:52:48;-0.30;99.90
17807;DHT22;9027;48.938;9.182;2023-02-28T02:54:24;-0.30;99.90
17807;DHT22;9027;48.938;9.182;2023-02-28T02:56:00;-0.30;99.90
17807;DHT22;9027;48.938;9.182;2023-02-28T02:57:37;-0.30;99.90
17807;DHT22;9027;48.938;9.182;2023-02-28T02:59:16;-0.20;99.90
17807;DHT22;9027;48.938;9.182;2023-02-28T03:00:53;-0.20;99.90
17807;DHT22;9027;48.938;9.182;2023-02-28T03:02:28;-0.20;99.90
17807;DHT22;9027;48.938;9.182;2023-02-28T03:04:09;-0.20;99.90
17807;DHT22;9027;48.938;9.182;2023-02-28T03:05:46;-0.20;99.90
17807;DHT22;9027;48.938;9.182;2023-02-28T03:07:19;-0.20;99.90
17807;DHT22;9027;48.938;9.182;2023-02-28T03:08:50;-0.10;99.90
17807;DHT22;9027;48.938;9.182;2023-02-28T03:10:29;-0.10;99.90
17807;DHT22;9027;48.938;9.182;2023-02-28T03:12:01;-0.10;99.90
17807;DHT22;9027;48.938;9.182;2023-02-28T03:13:49;-0.10;99.90
17807;DHT22;9027;48.938;9.182;2023-02-28T03:15:27;-0.10;99.90
17807;DHT22;9027;48.938;9.182;2023-02-28T03:19:30;0.00;99.90
17807;DHT22;9027;48.938;9.182;2023-02-28T03:21:11;0.00;99.90
17807;DHT22;9027;48.938;9.182;2023-02-28T03:22:52;0.00;99.90
17807;DHT22;9027;48.938;9.182;2023-02-28T03:24:31;0.00;99.90
17807;DHT22;9027;48.938;9.182;2023-02-28T03:26:10;0.00;99.90
17807;DHT22;9027;48.938;9.182;2023-02-28T03:27:49;0.10;99.90
17807;DHT22;9027;48.938;9.182;2023-02-28T03:29:31;0.10;99.90
17807;DHT22;9027;48.938;9.182;2023-02-28T03:31:09;0.10;99.90
17807;DHT22;9027;48.938;9.182;2023-02-28T03:32:46;0.00;99.90
17807;DHT22;9027;48.938;9.182;2023-02-28T03:34:25;0.10;99.90
17807;DHT22;9027;48.938;9.182;2023-02-28T03:36:01;0.10;99.90
17807;DHT22;9027;48.938;9.182;2023-02-28T03:37:35;0.10;99.90
17807;DHT22;9027;48.938;9.182;2023-02-28T03:39:14;0.10;99.90
17807;DHT22;9027;48.938;9.182;2023-02-28T03:40:50;0.10;99.90
17807;DHT22;9027;48.938;9.182;2023-02-28T03:42:24;0.10;99.90
17807;DHT22;9027;48.938;9.182;2023-02-28T03:43:59;0.10;99.90
17807;DHT22;9027;48.938;9.182;2023-02-28T03:45:35;0.10;99.90
17807;DHT22;9027;48.938;9.182;2023-02-28T03:47:11;0.20;99.90
17807;DHT22;9027;48.938;9.182;2023-02-28T03:48:45;0.20;99.90
17807;DHT22;9027;48.938;9.182;2023-02-28T03:50:22;0.20;99.90
17807;DHT22;9027;48.938;9.182;2023-02-28T03:51:58;0.20;99.90
17807;DHT22;9027;48.938;9.182;2023-02-28T03:53:33;0.30;99.90
17807;DHT22;9027;48.938;9.182;2023-02-28T03:55:11;0.30;99.90
17807;DHT22;9027;48.938;9.182;2023-02-28T03:56:48;0.30;99.90
17807;DHT22;9027;48.938;9.182;2023-02-28T03:58:24;0.40;99.90
17807;DHT22;9027;48.938;9.182;2023-02-28T03:59:59;0.40;99.90
17807;DHT22;9027;48.938;9.182;2023-02-28T04:01:44;0.40;99.90
17807;DHT22;9027;48.938;9.182;2023-02-28T04:03:17;0.50;99.90
17807;DHT22;9027;48.938;9.182;2023-02-28T04:04:49;0.50;99.90
17807;DHT22;9027;48.938;9.182;2023-02-28T04:06:22;0.50;99.90
17807;DHT22;9027;48.938;9.182;2023-02-28T04:08:03;0.50;99.90
17807;DHT22;9027;48.938;9.182;2023-02-28T04:09:35;0.50;99.90
17807;DHT22;9027;48.938;9.182;2023-02-28T04:11:20;0.50;99.90
17807;DHT22;9027;48.938;9.182;2023-02-28T04:12:52;0.50;99.90
17807;DHT22;9027;48.938;9.182;2023-02-28T04:14:24;0.50;99.90
17807;DHT22;9027;48.938;9.182;2023-02-28T04:15:56;0.50;99.90
17807;DHT22;9027;48.938;9.182;2023-02-28T04:17:27;0.60;99.90
17807;DHT22;9027;48.938;9.182;2023-02-28T04:18:59;0.50;99.90
17807;DHT22;9027;48.938;9.182;2023-02-28T04:20:33;0.50;99.90
17807;DHT22;9027;48.938;9.182;2023-02-28T04:22:05;0.60;99.90
17807;DHT22;9027;48.938;9.182;2023-02-28T04:23:37;0.50;99.90
17807;DHT22;9027;48.938;9.182;2023-02-28T04:25:09;0.50;99.90
17807;DHT22;9027;48.938;9.182;2023-02-28T04:26:44;0.50;99.90
17807;DHT22;9027;48.938;9.182;2023-02-28T04:28:16;0.50;99.90
17807;DHT22;9027;48.938;9.182;2023-02-28T04:29:48;0.50;99.90
17807;DHT22;9027;48.938;9.182;2023-02-28T04:31:20;0.50;99.90
17807;DHT22;9027;48.938;9.182;2023-02-28T04:32:52;0.50;99.90
17807;DHT22;9027;48.938;9.182;2023-02-28T04:34:24;0.50;99.90
17807;DHT22;9027;48.938;9.182;2023-02-28T04:36:01;0.50;99.90
17807;DHT22;9027;48.938;9.182;2023-02-28T04:37:34;0.50;99.90
17807;DHT22;9027;48.938;9.182;2023-02-28T04:39:07;0.50;99.90
17807;DHT22;9027;48.938;9.182;2023-02-28T04:40:40;0.50;99.90
17807;DHT22;9027;48.938;9.182;2023-02-28T04:42:13;0.50;99.90
17807;DHT22;9027;48.938;9.182;2023-02-28T04:43:45;0.50;99.90
17807;DHT22;9027;48.938;9.182;2023-02-28T04:45:16;0.50;99.90
17807;DHT22;9027;48.938;9.182;2023-02-28T04:46:49;0.50;99.90
17807;DHT22;9027;48.938;9.182;2023-02-28T04:48:20;0.60;99.90
17807;DHT22;9027;48.938;9.182;2023-02-28T04:49:52;0.60;99.90
17807;DHT22;9027;48.938;9.182;2023-02-28T04:51:24;0.60;99.90
17807;DHT22;9027;48.938;9.182;2023-02-28T04:52:56;0.60;99.90
17807;DHT22;9027;48.938;9.182;2023-02-28T04:54:28;0.60;99.90
17807;DHT22;9027;48.938;9.182;2023-02-28T04:56:00;0.60;99.90
17807;DHT22;9027;48.938;9.182;2023-02-28T04:57:33;0.50;99.90
17807;DHT22;9027;48.938;9.182;2023-02-28T04:59:04;0.50;99.90
17807;DHT22;9027;48.938;9.182;2023-02-28T05:00:36;0.50;99.90
17807;DHT22;9027;48.938;9.182;2023-02-28T05:02:08;0.50;99.90
17807;DHT22;9027;48.938;9.182;2023-02-28T05:03:40;0.50;99.90
17807;DHT22;9027;48.938;9.182;2023-02-28T05:05:11;0.50;99.90
17807;DHT22;9027;48.938;9.182;2023-02-28T05:06:48;0.40;99.90
17807;DHT22;9027;48.938;9.182;2023-02-28T05:08:20;0.40;99.90
17807;DHT22;9027;48.938;9.182;2023-02-28T05:09:52;0.40;99.90
17807;DHT22;9027;48.938;9.182;2023-02-28T05:11:26;0.40;99.90
17807;DHT22;9027;48.938;9.182;2023-02-28T05:13:00;0.40;99.90
17807;DHT22;9027;48.938;9.182;2023-02-28T05:14:32;0.40;99.90
17807;DHT22;9027;48.938;9.182;2023-02-28T05:16:05;0.40;99.90
17807;DHT22;9027;48.938;9.182;2023-02-28T05:17:36;0.50;99.90
17807;DHT22;9027;48.938;9.182;2023-02-28T05:19:08;0.50;99.90
17807;DHT22;9027;48.938;9.182;2023-02-28T05:20:40;0.50;99.90
17807;DHT22;9027;48.938;9.182;2023-02-28T05:22:13;0.50;99.90
17807;DHT22;9027;48.938;9.182;2023-02-28T05:23:46;0.50;99.90
17807;DHT22;9027;48.938;9.182;2023-02-28T05:25:20;0.50;99.90
17807;DHT22;9027;48.938;9.182;2023-02-28T05:26:53;0.50;99.90
17807;DHT22;9027;48.938;9.182;2023-02-28T05:28:27;0.50;99.90
17807;DHT22;9027;48.938;9.182;2023-02-28T05:29:59;0.50;99.90
17807;DHT22;9027;48.938;9.182;2023-02-28T05:31:33;0.50;99.90
17807;DHT22;9027;48.938;9.182;2023-02-28T05:33:05;0.50;99.90
17807;DHT22;9027;48.938;9.182;2023-02-28T05:34:38;0.50;99.90
17807;DHT22;9027;48.938;9.182;2023-02-28T05:36:10;0.50;99.90
17807;DHT22;9027;48.938;9.182;2023-02-28T05:37:41;0.50;99.90
17807;DHT22;9027;48.938;9.182;2023-02-28T05:39:13;0.50;99.90
17807;DHT22;9027;48.938;9.182;2023-02-28T05:40:44;0.50;99.90
17807;DHT22;9027;48.938;9.182;2023-02-28T05:42:16;0.50;99.90
17807;DHT22;9027;48.938;9.182;2023-02-28T05:43:49;0.50;99.90
17807;DHT22;9027;48.938;9.182;2023-02-28T05:45:21;0.50;99.90
17807;DHT22;9027;48.938;9.182;2023-02-28T05:46:53;0.40;99.90
17807;DHT22;9027;48.938;9.182;2023-02-28T05:48:25;0.40;99.90
17807;DHT22;9027;48.938;9.182;2023-02-28T05:49:57;0.50;99.90
17807;DHT22;9027;48.938;9.182;2023-02-28T05:51:29;0.50;99.90
17807;DHT22;9027;48.938;9.182;2023-02-28T05:53:01;0.50;99.90
17807;DHT22;9027;48.938;9.182;2023-02-28T05:54:33;0.50;99.90
17807;DHT22;9027;48.938;9.182;2023-02-28T05:56:05;0.50;99.90
17807;DHT22;9027;48.938;9.182;2023-02-28T05:57:37;0.50;99.90
17807;DHT22;9027;48.938;9.182;2023-02-28T05:59:10;0.50;99.90
17807;DHT22;9027;48.938;9.182;2023-02-28T06:00:42;0.50;99.90
17807;DHT22;9027;48.938;9.182;2023-02-28T06:02:16;0.50;99.90
17807;DHT22;9027;48.938;9.182;2023-02-28T06:03:49;0.50;99.90
17807;DHT22;9027;48.938;9.182;2023-02-28T06:05:21;0.50;99.90
17807;DHT22;9027;48.938;9.182;2023-02-28T06:06:53;0.50;99.90
17807;DHT22;9027;48.938;9.182;2023-02-28T06:08:28;0.70;99.90
17807;DHT22;9027;48.938;9.182;2023-02-28T06:09:59;0.90;99.90
17807;DHT22;9027;48.938;9.182;2023-02-28T06:11:32;0.90;99.90
17807;DHT22;9027;48.938;9.182;2023-02-28T06:13:04;0.90;99.90
17807;DHT22;9027;48.938;9.182;2023-02-28T06:14:38;0.80;99.90
17807;DHT22;9027;48.938;9.182;2023-02-28T06:16:11;0.80;99.90
17807;DHT22;9027;48.938;9.182;2023-02-28T06:17:43;0.70;99.90
17807;DHT22;9027;48.938;9.182;2023-02-28T06:19:15;0.70;99.90
17807;DHT22;9027;48.938;9.182;2023-02-28T06:20:52;0.70;99.90
17807;DHT22;9027;48.938;9.182;2023-02-28T06:22:25;0.60;99.90
17807;DHT22;9027;48.938;9.182;2023-02-28T06:23:57;0.60;99.90
17807;DHT22;9027;48.938;9.182;2023-02-28T06:25:30;0.70;99.90
17807;DHT22;9027;48.938;9.182;2023-02-28T06:27:01;0.60;99.90
17807;DHT22;9027;48.938;9.182;2023-02-28T06:28:35;0.60;99.90
17807;DHT22;9027;48.938;9.182;2023-02-28T06:30:10;0.60;99.90
17807;DHT22;9027;48.938;9.182;2023-02-28T06:31:42;0.60;99.90
17807;DHT22;9027;48.938;9.182;2023-02-28T06:33:14;0.60;99.90
17807;DHT22;9027;48.938;9.182;2023-02-28T06:34:46;0.60;99.90
17807;DHT22;9027;48.938;9.182;2023-02-28T06:36:18;0.60;99.90
17807;DHT22;9027;48.938;9.182;2023-02-28T06:37:50;0.60;99.90
17807;DHT22;9027;48.938;9.182;2023-02-28T06:39:22;0.60;99.90
17807;DHT22;9027;48.938;9.182;2023-02-28T06:40:54;0.60;99.90
17807;DHT22;9027;48.938;9.182;2023-02-28T06:42:27;0.60;99.90
17807;DHT22;9027;48.938;9.182;2023-02-28T06:44:01;0.60;99.90
17807;DHT22;9027;48.938;9.182;2023-02-28T06:45:34;0.60;99.90
17807;DHT22;9027;48.938;9.182;2023-02-28T06:47:06;0.60;99.90
17807;DHT22;9027;48.938;9.182;2023-02-28T06:48:38;0.60;99.90
17807;DHT22;9027;48.938;9.182;2023-02-28T06:50:11;0.60;99.90
17807;DHT22;9027;48.938;9.182;2023-02-28T06:51:44;0.60;99.90
17807;DHT22;9027;48.938;9.182;2023-02-28T06:53:16;0.60;99.90
17807;DHT22;9027;48.938;9.182;2023-02-28T06:54:48;0.60;99.90
17807;DHT22;9027;48.938;9.182;2023-02-28T06:56:30;0.60;99.90
17807;DHT22;9027;48.938;9.182;2023-02-28T06:58:02;0.60;99.90
17807;DHT22;9027;48.938;9.182;2023-02-28T06:59:34;0.60;99.90
17807;DHT22;9027;48.938;9.182;2023-02-28T07:01:08;0.70;99.90
17807;DHT22;9027;48.938;9.182;2023-02-28T07:02:40;0.70;99.90
17807;DHT22;9027;48.938;9.182;2023-02-28T07:04:12;0.70;99.90
17807;DHT22;9027;48.938;9.182;2023-02-28T07:05:45;0.70;99.90
17807;DHT22;9027;48.938;9.182;2023-02-28T07:07:17;0.70;99.90
17807;DHT22;9027;48.938;9.182;2023-02-28T07:08:50;0.70;99.90
17807;DHT22;9027;48.938;9.182;2023-02-28T07:10:22;0.70;99.90
17807;DHT22;9027;48.938;9.182;2023-02-28T07:11:54;0.70;99.90
17807;DHT22;9027;48.938;9.182;2023-02-28T07:13:26;0.80;99.90
17807;DHT22;9027;48.938;9.182;2023-02-28T07:14:58;0.80;99.90
17807;DHT22;9027;48.938;9.182;2023-02-28T07:16:31;0.80;99.90
17807;DHT22;9027;48.938;9.182;2023-02-28T07:18:03;0.70;99.90
17807;DHT22;9027;48.938;9.182;2023-02-28T07:19:35;0.70;99.90
17807;DHT22;9027;48.938;9.182;2023-02-28T07:21:08;0.70;99.90
17807;DHT22;9027;48.938;9.182;2023-02-28T07:22:40;0.70;99.90
17807;DHT22;9027;48.938;9.182;2023-02-28T07:24:12;0.70;99.90
17807;DHT22;9027;48.938;9.182;2023-02-28T07:25:46;0.70;99.90
17807;DHT22;9027;48.938;9.182;2023-02-28T07:27:18;0.70;99.90
17807;DHT22;9027;48.938;9.182;2023-02-28T07:28:56;0.70;99.90
17807;DHT22;9027;48.938;9.182;2023-02-28T07:30:27;0.70;99.90
17807;DHT22;9027;48.938;9.182;2023-02-28T07:32:01;0.70;99.90
17807;DHT22;9027;48.938;9.182;2023-02-28T07:33:33;0.70;99.90
17807;DHT22;9027;48.938;9.182;2023-02-28T07:35:06;0.80;99.90
17807;DHT22;9027;48.938;9.182;2023-02-28T07:36:38;0.80;99.90
17807;DHT22;9027;48.938;9.182;2023-02-28T07:38:10;0.80;99.90
17807;DHT22;9027;48.938;9.182;2023-02-28T07:39:44;0.80;99.90
17807;DHT22;9027;48.938;9.182;2023-02-28T07:41:16;0.80;99.90
17807;DHT22;9027;48.938;9.182;2023-02-28T07:42:48;0.80;99.90
17807;DHT22;9027;48.938;9.182;2023-02-28T07:44:21;0.80;99.90
17807;DHT22;9027;48.938;9.182;2023-02-28T07:45:53;0.90;99.90
17807;DHT22;9027;48.938;9.182;2023-02-28T07:47:28;0.90;99.90
17807;DHT22;9027;48.938;9.182;2023-02-28T07:49:00;0.90;99.90
17807;DHT22;9027;48.938;9.182;2023-02-28T07:50:33;0.90;99.90
17807;DHT22;9027;48.938;9.182;2023-02-28T07:52:06;1.00;99.90
17807;DHT22;9027;48.938;9.182;2023-02-28T07:53:38;1.00;99.90
17807;DHT22;9027;48.938;9.182;2023-02-28T07:55:10;1.00;99.90
17807;DHT22;9027;48.938;9.182;2023-02-28T07:56:42;0.90;99.90
17807;DHT22;9027;48.938;9.182;2023-02-28T07:58:14;0.80;99.90
17807;DHT22;9027;48.938;9.182;2023-02-28T07:59:46;0.80;99.90
17807;DHT22;9027;48.938;9.182;2023-02-28T08:01:18;0.90;99.90
17807;DHT22;9027;48.938;9.182;2023-02-28T08:02:51;0.90;99.90
17807;DHT22;9027;48.938;9.182;2023-02-28T08:04:23;0.90;99.90
17807;DHT22;9027;48.938;9.182;2023-02-28T08:05:55;0.90;99.90
17807;DHT22;9027;48.938;9.182;2023-02-28T08:07:27;0.90;99.90
17807;DHT22;9027;48.938;9.182;2023-02-28T08:08:59;0.90;99.90
17807;DHT22;9027;48.938;9.182;2023-02-28T08:10:31;0.90;99.90
17807;DHT22;9027;48.938;9.182;2023-02-28T08:12:03;1.00;99.90
17807;DHT22;9027;48.938;9.182;2023-02-28T08:13:35;1.00;99.90
17807;DHT22;9027;48.938;9.182;2023-02-28T08:15:08;1.00;99.90
17807;DHT22;9027;48.938;9.182;2023-02-28T08:16:40;1.10;99.90
17807;DHT22;9027;48.938;9.182;2023-02-28T08:18:14;1.20;99.90
17807;DHT22;9027;48.938;9.182;2023-02-28T08:19:46;1.30;99.90
17807;DHT22;9027;48.938;9.182;2023-02-28T08:21:19;1.30;99.90
17807;DHT22;9027;48.938;9.182;2023-02-28T08:22:52;1.30;99.90
17807;DHT22;9027;48.938;9.182;2023-02-28T08:24:23;1.30;99.90
17807;DHT22;9027;48.938;9.182;2023-02-28T08:25:56;1.40;99.90
17807;DHT22;9027;48.938;9.182;2023-02-28T08:27:28;1.40;99.90
17807;DHT22;9027;48.938;9.182;2023-02-28T08:29:00;1.40;99.90
17807;DHT22;9027;48.938;9.182;2023-02-28T08:30:32;1.40;99.90
17807;DHT22;9027;48.938;9.182;2023-02-28T08:32:04;1.40;99.90
17807;DHT22;9027;48.938;9.182;2023-02-28T08:33:38;1.40;99.90
17807;DHT22;9027;48.938;9.182;2023-02-28T08:35:10;1.40;99.90
17807;DHT22;9027;48.938;9.182;2023-02-28T08:36:43;1.40;99.90
17807;DHT22;9027;48.938;9.182;2023-02-28T08:38:16;1.40;99.90
17807;DHT22;9027;48.938;9.182;2023-02-28T08:39:48;1.50;99.90
17807;DHT22;9027;48.938;9.182;2023-02-28T08:41:20;1.50;99.90
17807;DHT22;9027;48.938;9.182;2023-02-28T08:42:52;1.50;99.90
17807;DHT22;9027;48.938;9.182;2023-02-28T08:44:23;1.50;99.90
17807;DHT22;9027;48.938;9.182;2023-02-28T08:45:56;1.60;99.90
17807;DHT22;9027;48.938;9.182;2023-02-28T08:47:28;1.60;99.90
17807;DHT22;9027;48.938;9.182;2023-02-28T08:49:01;1.60;99.90
17807;DHT22;9027;48.938;9.182;2023-02-28T08:50:33;1.70;99.90
17807;DHT22;9027;48.938;9.182;2023-02-28T08:52:05;1.70;99.90
17807;DHT22;9027;48.938;9.182;2023-02-28T08:53:38;1.80;99.90
17807;DHT22;9027;48.938;9.182;2023-02-28T08:55:10;1.80;99.90
17807;DHT22;9027;48.938;9.182;2023-02-28T08:56:42;2.00;99.90
17807;DHT22;9027;48.938;9.182;2023-02-28T08:58:14;2.10;99.90
17807;DHT22;9027;48.938;9.182;2023-02-28T08:59:46;2.20;99.90
17807;DHT22;9027;48.938;9.182;2023-02-28T09:01:19;2.30;99.90
17807;DHT22;9027;48.938;9.182;2023-02-28T09:02:52;2.40;99.90
17807;DHT22;9027;48.938;9.182;2023-02-28T09:04:26;2.50;99.90
17807;DHT22;9027;48.938;9.182;2023-02-28T09:06:01;2.60;99.90
17807;DHT22;9027;48.938;9.182;2023-02-28T09:07:33;2.60;99.90
17807;DHT22;9027;48.938;9.182;2023-02-28T09:09:05;2.70;99.90
17807;DHT22;9027;48.938;9.182;2023-02-28T09:10:37;2.90;99.90
17807;DHT22;9027;48.938;9.182;2023-02-28T09:12:09;2.80;99.90
17807;DHT22;9027;48.938;9.182;2023-02-28T09:13:41;3.00;99.90
17807;DHT22;9027;48.938;9.182;2023-02-28T09:15:13;3.10;99.90
17807;DHT22;9027;48.938;9.182;2023-02-28T09:16:45;3.30;99.90
17807;DHT22;9027;48.938;9.182;2023-02-28T09:18:17;3.40;99.90
17807;DHT22;9027;48.938;9.182;2023-02-28T09:19:51;3.40;99.90
17807;DHT22;9027;48.938;9.182;2023-02-28T09:21:23;3.40;99.90
17807;DHT22;9027;48.938;9.182;2023-02-28T09:22:55;3.60;99.90
17807;DHT22;9027;48.938;9.182;2023-02-28T09:24:26;3.70;99.90
17807;DHT22;9027;48.938;9.182;2023-02-28T09:25:58;3.60;99.90
17807;DHT22;9027;48.938;9.182;2023-02-28T09:27:30;3.60;99.90
17807;DHT22;9027;48.938;9.182;2023-02-28T09:29:02;3.30;99.90
17807;DHT22;9027;48.938;9.182;2023-02-28T09:30:34;3.20;99.90
17807;DHT22;9027;48.938;9.182;2023-02-28T09:32:06;3.10;99.90
17807;DHT22;9027;48.938;9.182;2023-02-28T09:33:38;3.20;99.90
17807;DHT22;9027;48.938;9.182;2023-02-28T09:35:11;3.20;99.90
17807;DHT22;9027;48.938;9.182;2023-02-28T09:36:46;3.00;99.90
17807;DHT22;9027;48.938;9.182;2023-02-28T09:38:19;3.10;99.90
17807;DHT22;9027;48.938;9.182;2023-02-28T09:39:51;3.00;99.90
17807;DHT22;9027;48.938;9.182;2023-02-28T09:41:25;3.00;99.90
17807;DHT22;9027;48.938;9.182;2023-02-28T09:42:59;2.90;99.90
17807;DHT22;9027;48.938;9.182;2023-02-28T09:44:35;2.90;99.90
17807;DHT22;9027;48.938;9.182;2023-02-28T09:46:16;3.00;99.90
17807;DHT22;9027;48.938;9.182;2023-02-28T09:47:53;3.00;99.90
17807;DHT22;9027;48.938;9.182;2023-02-28T09:49:32;3.00;99.90
17807;DHT22;9027;48.938;9.182;2023-02-28T09:51:14;3.10;99.90
17807;DHT22;9027;48.938;9.182;2023-02-28T09:52:48;3.00;99.90
17807;DHT22;9027;48.938;9.182;2023-02-28T09:54:23;3.10;99.90
17807;DHT22;9027;48.938;9.182;2023-02-28T09:55:57;3.20;99.90
17807;DHT22;9027;48.938;9.182;2023-02-28T09:57:35;3.20;99.90
17807;DHT22;9027;48.938;9.182;2023-02-28T09:59:16;3.30;99.90
17807;DHT22;9027;48.938;9.182;2023-02-28T10:00:56;3.30;99.90
17807;DHT22;9027;48.938;9.182;2023-02-28T10:02:46;3.30;99.90
17807;DHT22;9027;48.938;9.182;2023-02-28T10:04:36;3.40;99.90
17807;DHT22;9027;48.938;9.182;2023-02-28T10:06:16;3.30;99.90
17807;DHT22;9027;48.938;9.182;2023-02-28T10:08:00;3.40;99.90
17807;DHT22;9027;48.938;9.182;2023-02-28T10:09:36;3.50;99.90
17807;DHT22;9027;48.938;9.182;2023-02-28T10:11:11;3.40;99.90
17807;DHT22;9027;48.938;9.182;2023-02-28T10:12:46;3.50;99.90
17807;DHT22;9027;48.938;9.182;2023-02-28T10:14:20;3.50;99.90
17807;DHT22;9027;48.938;9.182;2023-02-28T10:15:57;3.30;99.90
17807;DHT22;9027;48.938;9.182;2023-02-28T10:17:35;3.30;99.90
17807;DHT22;9027;48.938;9.182;2023-02-28T10:19:13;3.40;99.90
17807;DHT22;9027;48.938;9.182;2023-02-28T10:20:47;3.50;99.90